KHDE

Brewster Field Airport

Holdrege, Nebraska, USA
METAR KHDE 201555Z AUTO 34016G24KT 10SM OVC015 17/14 A3006 RMK AO2 T01670138
Observed Flight Rules
Aug-20 @ 15:55 UTC (31 minutes ago) Marginal Visual Flight Rules
Wind Visibility Clouds
340° at 16 knots
 Gusting to 24 knots
10 miles
  • Overcast at 1,500' AGL
Temperatures Readings
Current 17°C / 63°F
Dewpoint 14°C / 57°F
Humidity 83%
Altimeter 30.06" Hg
Pressure 1018 hPa
Elevation 705
METAR KHDE 201555Z AUTO 34016G24KT 10SM OVC015 17/14 A3006 RMK AO2 T01670138
Observed Flight Rules
Aug-20 @ 15:55 UTC
(31 minutes ago)
MVFR
Wind Visibility
340° at 16 knots
 Gusting to 24 knots
10 miles
Clouds
  • Overcast at 1,500' AGL
Temperature Dewpoint
17°C / 63°F 14°C / 57°F
Humidity Altimeter Pressure
83% 30.06" Hg 1018 hPa